Aérodrome :
LOGIN :

S'inscrire | Disclaimer

   EN    FR    IT 

 










Légende :    VFR   VFR Marginal   IFR   IFR Intensif   IFR Très Intensif
Visi : 
Plafond : 
>= 8 km
>= 3000ft
5 à 8 km
1000 à 3000 ft
1500m à 5 km
500 à 1000 ft
800 à 1500m
200 à 500 ft
< 800m
< 200 ft
Symboles :   Orages  Brouillard  Fortes neiges  Fortes précipitations  Vent > 20 kt
SIGMETs :   Divers  Orages  Givrage  Turbulence  Onde Orograph.  Cendres Volcan.







- Altitude de l'aérodrome : 39 ft


ETNH - Hohn AB

DERNIER METAR :
  • 211720Z 26009KT 3000 BR OVC004 09/08 Q1031 YLO

METARs EXPIRÉS :
  • 211620Z 25014G24KT 4500 BR BKN006 09/07 Q1031 YLO
  • 211520Z 25014KT 7000 BKN008 10/07 Q1031 GRN GRN TEMPO YLO

TAF TAF ETNH
Valide du 21 à 12h jusqu'au 22 à 00h UTC


211120Z 2112/2124 23010KT 6000 NSW BKN008
TEMPO 2112/2117 25012G22KT 3000 BR BKN005
BECMG 2117/2119 26007KT 2000 BR BKN003
TEMPO 2119/2122 25005KT 1000 BR BKN001
BECMG 2122/2124 26003KT 0600 FG VV000 BY ETGL
Pas de NOTAMs connus pour ce terrain.



MET'MAP, la Météo Aéronautique d'un coup d'oeil ! - Copyright ORBIFLY Décembre 2007 - Disclaimer

ORBIFLY MET'MAP TEAM :

Programmation & Développement : Alexandra Zaïnal
Conception & Développement : Baudouin d'Aumeries
Co-Programmation & Développement : Marc-Olivier Méhu
Soutien technique & logistique : Manuel Goepfert

Contact : metmap@orbifly.com




SOURCES & CREDITS :

   NOAA